sensor_id;sensor_type;location;lat;lon;timestamp;pressure;altitude;pressure_sealevel;temperature;humidity
12536;BME280;6334;48.696;2.114;2022-11-20T00:00:03;99674.45;;;8.07;100.00
12536;BME280;6334;48.696;2.114;2022-11-20T00:02:34;99672.16;;;8.18;100.00
12536;BME280;6334;48.696;2.114;2022-11-20T00:05:04;99670.89;;;8.03;100.00
12536;BME280;6334;48.696;2.114;2022-11-20T00:07:34;99673.45;;;8.19;100.00
12536;BME280;6334;48.696;2.114;2022-11-20T00:10:03;99672.25;;;8.05;100.00
12536;BME280;6334;48.696;2.114;2022-11-20T00:12:37;99670.59;;;8.07;100.00
12536;BME280;6334;48.696;2.114;2022-11-20T00:15:07;99665.00;;;8.00;100.00
12536;BME280;6334;48.696;2.114;2022-11-20T00:17:42;99669.59;;;7.91;100.00
12536;BME280;6334;48.696;2.114;2022-11-20T00:20:12;99673.86;;;7.86;100.00
12536;BME280;6334;48.696;2.114;2022-11-20T00:22:42;99675.88;;;7.85;100.00
12536;BME280;6334;48.696;2.114;2022-11-20T00:25:13;99678.52;;;7.91;100.00
12536;BME280;6334;48.696;2.114;2022-11-20T00:27:43;99679.08;;;7.87;100.00
12536;BME280;6334;48.696;2.114;2022-11-20T00:30:13;99676.61;;;7.63;100.00
12536;BME280;6334;48.696;2.114;2022-11-20T00:32:43;99678.48;;;7.87;100.00
12536;BME280;6334;48.696;2.114;2022-11-20T00:35:14;99679.58;;;7.79;100.00
12536;BME280;6334;48.696;2.114;2022-11-20T00:37:44;99677.08;;;7.69;100.00
12536;BME280;6334;48.696;2.114;2022-11-20T00:40:15;99677.44;;;7.27;100.00
12536;BME280;6334;48.696;2.114;2022-11-20T00:42:46;99690.86;;;7.11;100.00
12536;BME280;6334;48.696;2.114;2022-11-20T00:45:16;99689.21;;;7.55;100.00
12536;BME280;6334;48.696;2.114;2022-11-20T00:47:47;99696.50;;;7.65;100.00
12536;BME280;6334;48.696;2.114;2022-11-20T00:50:17;99688.27;;;7.68;100.00
12536;BME280;6334;48.696;2.114;2022-11-20T00:52:47;99684.84;;;7.65;100.00
12536;BME280;6334;48.696;2.114;2022-11-20T00:55:17;99687.07;;;7.31;100.00
12536;BME280;6334;48.696;2.114;2022-11-20T00:57:47;99686.61;;;7.92;100.00
12536;BME280;6334;48.696;2.114;2022-11-20T01:00:18;99691.10;;;7.87;100.00
12536;BME280;6334;48.696;2.114;2022-11-20T01:02:48;99693.34;;;7.64;100.00
12536;BME280;6334;48.696;2.114;2022-11-20T01:05:19;99687.70;;;7.74;100.00
12536;BME280;6334;48.696;2.114;2022-11-20T01:07:50;99685.89;;;7.66;100.00
12536;BME280;6334;48.696;2.114;2022-11-20T01:10:20;99693.06;;;7.25;100.00
12536;BME280;6334;48.696;2.114;2022-11-20T01:12:50;99689.68;;;7.41;100.00
12536;BME280;6334;48.696;2.114;2022-11-20T01:15:21;99687.07;;;7.24;100.00
12536;BME280;6334;48.696;2.114;2022-11-20T01:17:51;99690.64;;;7.22;100.00
12536;BME280;6334;48.696;2.114;2022-11-20T01:20:22;99684.22;;;7.41;100.00
12536;BME280;6334;48.696;2.114;2022-11-20T01:22:51;99687.75;;;7.27;100.00
12536;BME280;6334;48.696;2.114;2022-11-20T01:25:22;99684.33;;;7.51;100.00
12536;BME280;6334;48.696;2.114;2022-11-20T01:27:52;99682.67;;;7.16;100.00
12536;BME280;6334;48.696;2.114;2022-11-20T01:30:22;99681.89;;;7.01;100.00
12536;BME280;6334;48.696;2.114;2022-11-20T01:32:52;99676.53;;;7.31;100.00
12536;BME280;6334;48.696;2.114;2022-11-20T01:35:24;99678.91;;;7.13;100.00
12536;BME280;6334;48.696;2.114;2022-11-20T01:37:54;99667.47;;;7.29;100.00
12536;BME280;6334;48.696;2.114;2022-11-20T01:40:28;99666.30;;;7.25;100.00
12536;BME280;6334;48.696;2.114;2022-11-20T01:43:14;99670.52;;;6.95;100.00
12536;BME280;6334;48.696;2.114;2022-11-20T01:48:28;99663.26;;;6.96;100.00
12536;BME280;6334;48.696;2.114;2022-11-20T01:50:56;99665.91;;;7.03;100.00
12536;BME280;6334;48.696;2.114;2022-11-20T01:53:27;99663.70;;;6.88;100.00
12536;BME280;6334;48.696;2.114;2022-11-20T01:55:56;99662.09;;;6.73;100.00
12536;BME280;6334;48.696;2.114;2022-11-20T01:58:27;99661.56;;;7.00;100.00
12536;BME280;6334;48.696;2.114;2022-11-20T02:00:55;99660.59;;;6.76;100.00
12536;BME280;6334;48.696;2.114;2022-11-20T02:03:25;99661.00;;;6.58;100.00
12536;BME280;6334;48.696;2.114;2022-11-20T02:06:05;99662.83;;;6.63;100.00
12536;BME280;6334;48.696;2.114;2022-11-20T02:08:33;99662.55;;;6.73;100.00
12536;BME280;6334;48.696;2.114;2022-11-20T02:11:05;99662.05;;;6.73;100.00
12536;BME280;6334;48.696;2.114;2022-11-20T02:13:35;99659.98;;;6.52;100.00
12536;BME280;6334;48.696;2.114;2022-11-20T02:16:23;99656.70;;;6.54;100.00
12536;BME280;6334;48.696;2.114;2022-11-20T02:18:53;99650.52;;;6.35;100.00
12536;BME280;6334;48.696;2.114;2022-11-20T02:24:03;99649.91;;;6.51;100.00
12536;BME280;6334;48.696;2.114;2022-11-20T02:26:36;99653.78;;;6.69;100.00
12536;BME280;6334;48.696;2.114;2022-11-20T02:29:02;99648.30;;;6.60;100.00
12536;BME280;6334;48.696;2.114;2022-11-20T02:31:37;99656.27;;;6.67;100.00
12536;BME280;6334;48.696;2.114;2022-11-20T02:34:13;99651.45;;;6.99;100.00
12536;BME280;6334;48.696;2.114;2022-11-20T02:36:46;99649.14;;;6.70;100.00
12536;BME280;6334;48.696;2.114;2022-11-20T02:39:16;99643.92;;;6.77;100.00
12536;BME280;6334;48.696;2.114;2022-11-20T02:41:46;99643.73;;;6.64;100.00
12536;BME280;6334;48.696;2.114;2022-11-20T02:44:20;99633.69;;;6.54;100.00
12536;BME280;6334;48.696;2.114;2022-11-20T02:46:50;99634.98;;;6.50;100.00
12536;BME280;6334;48.696;2.114;2022-11-20T02:49:19;99631.05;;;6.52;100.00
12536;BME280;6334;48.696;2.114;2022-11-20T02:51:50;99627.61;;;6.49;100.00
12536;BME280;6334;48.696;2.114;2022-11-20T02:54:20;99618.45;;;6.63;100.00
12536;BME280;6334;48.696;2.114;2022-11-20T02:56:49;99622.72;;;6.68;100.00
12536;BME280;6334;48.696;2.114;2022-11-20T02:59:20;99618.08;;;6.50;100.00
12536;BME280;6334;48.696;2.114;2022-11-20T03:01:49;99609.61;;;6.21;100.00
12536;BME280;6334;48.696;2.114;2022-11-20T03:04:19;99601.25;;;6.51;100.00
12536;BME280;6334;48.696;2.114;2022-11-20T03:06:50;99597.89;;;6.49;100.00
12536;BME280;6334;48.696;2.114;2022-11-20T03:09:19;99595.61;;;6.47;100.00
12536;BME280;6334;48.696;2.114;2022-11-20T03:11:59;99589.04;;;6.24;100.00
12536;BME280;6334;48.696;2.114;2022-11-20T03:14:28;99587.58;;;6.57;100.00
12536;BME280;6334;48.696;2.114;2022-11-20T03:16:58;99579.21;;;6.76;100.00
12536;BME280;6334;48.696;2.114;2022-11-20T03:19:29;99579.35;;;6.37;100.00
12536;BME280;6334;48.696;2.114;2022-11-20T03:21:58;99579.23;;;6.44;100.00
12536;BME280;6334;48.696;2.114;2022-11-20T03:24:28;99589.78;;;6.83;100.00
12536;BME280;6334;48.696;2.114;2022-11-20T03:26:57;99587.79;;;6.84;100.00
12536;BME280;6334;48.696;2.114;2022-11-20T03:29:44;99460.59;;;6.01;100.00
12536;BME280;6334;48.696;2.114;2022-11-20T03:32:14;99577.95;;;6.49;100.00
12536;BME280;6334;48.696;2.114;2022-11-20T03:34:50;99578.16;;;6.36;100.00
12536;BME280;6334;48.696;2.114;2022-11-20T03:37:20;99587.75;;;6.54;100.00
12536;BME280;6334;48.696;2.114;2022-11-20T03:39:51;99587.80;;;6.31;100.00
12536;BME280;6334;48.696;2.114;2022-11-20T03:42:21;99581.86;;;6.37;100.00
12536;BME280;6334;48.696;2.114;2022-11-20T03:45:15;99573.19;;;6.08;100.00
12536;BME280;6334;48.696;2.114;2022-11-20T03:47:42;99555.16;;;6.55;100.00
12536;BME280;6334;48.696;2.114;2022-11-20T03:50:12;99559.23;;;6.13;100.00
12536;BME280;6334;48.696;2.114;2022-11-20T03:52:41;99565.96;;;6.21;100.00
12536;BME280;6334;48.696;2.114;2022-11-20T03:55:11;99567.95;;;6.12;100.00
12536;BME280;6334;48.696;2.114;2022-11-20T03:57:41;99566.17;;;6.54;100.00
12536;BME280;6334;48.696;2.114;2022-11-20T04:00:12;99563.54;;;6.50;100.00
12536;BME280;6334;48.696;2.114;2022-11-20T04:02:42;99567.86;;;6.59;100.00
12536;BME280;6334;48.696;2.114;2022-11-20T04:05:13;99567.97;;;6.71;100.00
12536;BME280;6334;48.696;2.114;2022-11-20T04:07:47;99565.16;;;6.64;100.00
12536;BME280;6334;48.696;2.114;2022-11-20T04:10:18;99562.06;;;6.63;100.00
12536;BME280;6334;48.696;2.114;2022-11-20T04:12:48;99554.91;;;6.57;100.00
12536;BME280;6334;48.696;2.114;2022-11-20T04:15:18;99560.30;;;6.46;100.00
12536;BME280;6334;48.696;2.114;2022-11-20T04:17:49;99557.05;;;6.57;100.00
12536;BME280;6334;48.696;2.114;2022-11-20T04:20:21;99559.64;;;6.75;100.00
12536;BME280;6334;48.696;2.114;2022-11-20T04:22:52;99560.20;;;6.59;100.00
12536;BME280;6334;48.696;2.114;2022-11-20T04:25:21;99552.88;;;6.53;100.00
12536;BME280;6334;48.696;2.114;2022-11-20T04:27:51;99550.66;;;6.84;100.00
12536;BME280;6334;48.696;2.114;2022-11-20T04:30:22;99548.09;;;6.65;100.00
12536;BME280;6334;48.696;2.114;2022-11-20T04:32:52;99544.75;;;6.54;100.00
12536;BME280;6334;48.696;2.114;2022-11-20T04:35:21;99546.48;;;6.51;100.00
12536;BME280;6334;48.696;2.114;2022-11-20T04:37:51;99546.05;;;6.32;100.00
12536;BME280;6334;48.696;2.114;2022-11-20T04:40:21;99549.16;;;6.32;100.00
12536;BME280;6334;48.696;2.114;2022-11-20T04:42:51;99545.50;;;6.35;100.00
12536;BME280;6334;48.696;2.114;2022-11-20T04:45:22;99539.02;;;6.50;100.00
12536;BME280;6334;48.696;2.114;2022-11-20T04:47:51;99534.78;;;6.30;100.00
12536;BME280;6334;48.696;2.114;2022-11-20T04:50:22;99532.20;;;6.35;100.00
12536;BME280;6334;48.696;2.114;2022-11-20T04:52:51;99533.50;;;6.29;100.00
12536;BME280;6334;48.696;2.114;2022-11-20T04:55:22;99530.92;;;6.42;100.00
12536;BME280;6334;48.696;2.114;2022-11-20T04:57:54;99526.69;;;6.16;100.00
12536;BME280;6334;48.696;2.114;2022-11-20T05:00:24;99525.38;;;6.48;100.00
12536;BME280;6334;48.696;2.114;2022-11-20T05:02:54;99521.95;;;6.16;100.00
12536;BME280;6334;48.696;2.114;2022-11-20T05:05:24;99515.14;;;6.06;100.00
12536;BME280;6334;48.696;2.114;2022-11-20T05:07:57;99518.33;;;6.28;100.00
12536;BME280;6334;48.696;2.114;2022-11-20T05:10:27;99516.28;;;6.30;100.00
12536;BME280;6334;48.696;2.114;2022-11-20T05:13:01;99515.86;;;6.49;100.00
12536;BME280;6334;48.696;2.114;2022-11-20T05:15:32;99512.13;;;6.26;100.00
12536;BME280;6334;48.696;2.114;2022-11-20T05:18:02;99509.34;;;6.29;100.00
12536;BME280;6334;48.696;2.114;2022-11-20T05:20:34;99502.10;;;6.21;100.00
12536;BME280;6334;48.696;2.114;2022-11-20T05:23:28;99506.22;;;6.27;100.00
12536;BME280;6334;48.696;2.114;2022-11-20T05:25:57;99507.95;;;6.39;100.00
12536;BME280;6334;48.696;2.114;2022-11-20T05:28:27;99511.75;;;6.12;100.00
12536;BME280;6334;48.696;2.114;2022-11-20T05:31:03;99517.73;;;6.25;100.00
12536;BME280;6334;48.696;2.114;2022-11-20T05:33:26;99516.17;;;6.41;100.00
12536;BME280;6334;48.696;2.114;2022-11-20T05:35:57;99518.50;;;6.48;100.00
12536;BME280;6334;48.696;2.114;2022-11-20T05:38:25;99510.11;;;6.36;100.00
12536;BME280;6334;48.696;2.114;2022-11-20T05:40:55;99509.09;;;6.46;100.00
12536;BME280;6334;48.696;2.114;2022-11-20T05:43:24;99509.17;;;6.50;100.00
12536;BME280;6334;48.696;2.114;2022-11-20T05:45:54;99508.56;;;6.44;100.00
12536;BME280;6334;48.696;2.114;2022-11-20T05:48:23;99507.77;;;6.37;100.00
12536;BME280;6334;48.696;2.114;2022-11-20T05:50:53;99506.98;;;6.43;100.00
12536;BME280;6334;48.696;2.114;2022-11-20T05:53:22;99507.55;;;6.42;100.00
12536;BME280;6334;48.696;2.114;2022-11-20T05:55:58;99500.95;;;6.42;100.00
12536;BME280;6334;48.696;2.114;2022-11-20T05:58:27;99506.61;;;6.33;100.00
12536;BME280;6334;48.696;2.114;2022-11-20T06:01:13;99514.17;;;6.22;100.00
12536;BME280;6334;48.696;2.114;2022-11-20T06:03:32;99508.66;;;6.05;100.00
12536;BME280;6334;48.696;2.114;2022-11-20T06:06:02;99508.34;;;6.27;100.00
12536;BME280;6334;48.696;2.114;2022-11-20T06:08:33;99499.99;;;6.34;100.00
12536;BME280;6334;48.696;2.114;2022-11-20T06:11:05;99495.41;;;6.65;100.00
12536;BME280;6334;48.696;2.114;2022-11-20T06:13:34;99493.06;;;6.24;100.00
12536;BME280;6334;48.696;2.114;2022-11-20T06:16:05;99492.80;;;5.98;100.00
12536;BME280;6334;48.696;2.114;2022-11-20T06:18:35;99489.27;;;6.12;100.00
12536;BME280;6334;48.696;2.114;2022-11-20T06:21:09;99488.31;;;6.27;100.00
12536;BME280;6334;48.696;2.114;2022-11-20T06:23:38;99486.95;;;6.44;100.00
12536;BME280;6334;48.696;2.114;2022-11-20T06:26:08;99472.79;;;6.37;100.00
12536;BME280;6334;48.696;2.114;2022-11-20T06:28:37;99475.29;;;6.07;100.00
12536;BME280;6334;48.696;2.114;2022-11-20T06:31:09;99480.64;;;6.47;100.00
12536;BME280;6334;48.696;2.114;2022-11-20T06:33:38;99476.32;;;6.54;100.00
12536;BME280;6334;48.696;2.114;2022-11-20T06:36:09;99471.59;;;6.71;100.00
12536;BME280;6334;48.696;2.114;2022-11-20T06:38:38;99472.61;;;6.53;100.00
12536;BME280;6334;48.696;2.114;2022-11-20T06:41:10;99467.66;;;6.17;100.00
12536;BME280;6334;48.696;2.114;2022-11-20T06:43:37;99470.77;;;6.44;100.00
12536;BME280;6334;48.696;2.114;2022-11-20T06:46:09;99477.31;;;6.67;100.00
12536;BME280;6334;48.696;2.114;2022-11-20T06:48:38;99477.27;;;6.61;100.00
12536;BME280;6334;48.696;2.114;2022-11-20T06:51:09;99482.09;;;6.50;100.00
12536;BME280;6334;48.696;2.114;2022-11-20T06:53:39;99486.59;;;6.13;100.00
12536;BME280;6334;48.696;2.114;2022-11-20T06:56:11;99484.88;;;6.27;100.00
12536;BME280;6334;48.696;2.114;2022-11-20T06:58:41;99488.38;;;6.40;100.00
12536;BME280;6334;48.696;2.114;2022-11-20T07:01:13;99498.69;;;6.70;100.00
12536;BME280;6334;48.696;2.114;2022-11-20T07:03:41;99506.55;;;6.59;100.00
12536;BME280;6334;48.696;2.114;2022-11-20T07:06:11;99497.09;;;6.42;100.00
12536;BME280;6334;48.696;2.114;2022-11-20T07:08:42;99503.50;;;6.16;100.00
12536;BME280;6334;48.696;2.114;2022-11-20T07:11:12;99503.92;;;6.39;100.00
12536;BME280;6334;48.696;2.114;2022-11-20T07:13:42;99503.92;;;6.41;100.00
12536;BME280;6334;48.696;2.114;2022-11-20T07:16:13;99507.26;;;6.14;100.00
12536;BME280;6334;48.696;2.114;2022-11-20T07:18:45;99504.34;;;6.23;100.00
12536;BME280;6334;48.696;2.114;2022-11-20T07:21:15;99509.52;;;6.12;100.00
12536;BME280;6334;48.696;2.114;2022-11-20T07:23:45;99510.53;;;6.45;100.00
12536;BME280;6334;48.696;2.114;2022-11-20T07:26:15;99501.58;;;6.46;100.00
12536;BME280;6334;48.696;2.114;2022-11-20T07:28:44;99502.58;;;6.49;100.00
12536;BME280;6334;48.696;2.114;2022-11-20T07:31:15;99500.45;;;6.51;100.00
12536;BME280;6334;48.696;2.114;2022-11-20T07:33:45;99495.95;;;6.56;100.00
12536;BME280;6334;48.696;2.114;2022-11-20T07:36:15;99498.94;;;6.37;100.00
12536;BME280;6334;48.696;2.114;2022-11-20T07:38:45;99505.13;;;6.51;100.00
12536;BME280;6334;48.696;2.114;2022-11-20T07:41:16;99502.62;;;6.23;100.00
12536;BME280;6334;48.696;2.114;2022-11-20T07:43:45;99504.98;;;6.36;100.00
12536;BME280;6334;48.696;2.114;2022-11-20T07:46:15;99493.88;;;6.47;100.00
12536;BME280;6334;48.696;2.114;2022-11-20T07:48:44;99504.14;;;6.57;100.00
12536;BME280;6334;48.696;2.114;2022-11-20T07:51:14;99503.19;;;6.31;100.00
12536;BME280;6334;48.696;2.114;2022-11-20T07:53:45;99500.78;;;6.38;100.00
12536;BME280;6334;48.696;2.114;2022-11-20T07:56:15;99500.69;;;6.42;100.00
12536;BME280;6334;48.696;2.114;2022-11-20T07:58:45;99501.25;;;6.49;100.00
12536;BME280;6334;48.696;2.114;2022-11-20T08:01:15;99498.46;;;6.48;100.00
12536;BME280;6334;48.696;2.114;2022-11-20T08:03:45;99492.64;;;6.66;100.00
12536;BME280;6334;48.696;2.114;2022-11-20T08:06:15;99478.66;;;6.79;100.00
12536;BME280;6334;48.696;2.114;2022-11-20T08:08:44;99469.66;;;6.79;100.00
12536;BME280;6334;48.696;2.114;2022-11-20T08:11:14;99484.31;;;7.03;100.00
12536;BME280;6334;48.696;2.114;2022-11-20T08:14:02;99495.48;;;6.80;100.00
12536;BME280;6334;48.696;2.114;2022-11-20T08:16:46;99495.67;;;6.54;100.00
12536;BME280;6334;48.696;2.114;2022-11-20T08:19:16;99486.31;;;6.56;100.00
12536;BME280;6334;48.696;2.114;2022-11-20T08:21:45;99484.69;;;6.84;100.00
12536;BME280;6334;48.696;2.114;2022-11-20T08:24:15;99474.63;;;7.05;100.00
12536;BME280;6334;48.696;2.114;2022-11-20T08:26:45;99478.12;;;6.69;100.00
12536;BME280;6334;48.696;2.114;2022-11-20T08:29:16;99477.10;;;7.17;100.00
12536;BME280;6334;48.696;2.114;2022-11-20T08:31:45;99472.56;;;6.81;100.00
12536;BME280;6334;48.696;2.114;2022-11-20T08:34:15;99465.84;;;6.77;100.00
12536;BME280;6334;48.696;2.114;2022-11-20T08:36:47;99459.48;;;6.94;100.00
12536;BME280;6334;48.696;2.114;2022-11-20T08:39:19;99454.48;;;6.84;100.00
12536;BME280;6334;48.696;2.114;2022-11-20T08:41:52;99452.87;;;7.00;100.00
12536;BME280;6334;48.696;2.114;2022-11-20T08:44:22;99453.64;;;7.08;100.00
12536;BME280;6334;48.696;2.114;2022-11-20T08:46:52;99442.24;;;7.01;100.00
12536;BME280;6334;48.696;2.114;2022-11-20T08:49:21;99442.91;;;7.03;100.00
12536;BME280;6334;48.696;2.114;2022-11-20T08:51:52;99444.16;;;7.19;100.00
12536;BME280;6334;48.696;2.114;2022-11-20T08:54:22;99438.55;;;6.91;100.00
12536;BME280;6334;48.696;2.114;2022-11-20T08:56:51;99431.69;;;6.93;100.00
12536;BME280;6334;48.696;2.114;2022-11-20T08:59:22;99437.09;;;7.25;100.00
12536;BME280;6334;48.696;2.114;2022-11-20T09:01:51;99436.39;;;7.02;100.00
12536;BME280;6334;48.696;2.114;2022-11-20T09:04:22;99439.54;;;6.93;100.00
12536;BME280;6334;48.696;2.114;2022-11-20T09:06:53;99425.20;;;6.86;100.00
12536;BME280;6334;48.696;2.114;2022-11-20T09:09:23;99424.77;;;7.01;100.00
12536;BME280;6334;48.696;2.114;2022-11-20T09:11:53;99432.53;;;6.91;100.00
12536;BME280;6334;48.696;2.114;2022-11-20T09:14:22;99429.01;;;6.98;100.00
12536;BME280;6334;48.696;2.114;2022-11-20T09:16:52;99427.44;;;7.02;100.00
12536;BME280;6334;48.696;2.114;2022-11-20T09:19:26;99426.20;;;7.04;100.00
12536;BME280;6334;48.696;2.114;2022-11-20T09:22:07;99423.21;;;7.03;100.00
12536;BME280;6334;48.696;2.114;2022-11-20T09:24:37;99419.22;;;7.02;100.00
12536;BME280;6334;48.696;2.114;2022-11-20T09:27:09;99414.01;;;6.91;100.00
12536;BME280;6334;48.696;2.114;2022-11-20T09:29:39;99407.72;;;7.11;100.00
12536;BME280;6334;48.696;2.114;2022-11-20T09:32:10;99399.28;;;7.11;100.00
12536;BME280;6334;48.696;2.114;2022-11-20T09:34:42;99401.84;;;7.19;100.00
12536;BME280;6334;48.696;2.114;2022-11-20T09:37:12;99398.33;;;7.45;100.00
12536;BME280;6334;48.696;2.114;2022-11-20T09:39:44;99392.77;;;7.20;100.00
12536;BME280;6334;48.696;2.114;2022-11-20T09:42:22;99389.36;;;7.18;100.00
12536;BME280;6334;48.696;2.114;2022-11-20T09:44:51;99394.88;;;7.28;100.00
12536;BME280;6334;48.696;2.114;2022-11-20T09:47:42;99395.56;;;7.15;100.00
12536;BME280;6334;48.696;2.114;2022-11-20T09:50:11;99394.50;;;7.38;100.00
12536;BME280;6334;48.696;2.114;2022-11-20T09:53:03;99382.52;;;7.55;100.00
12536;BME280;6334;48.696;2.114;2022-11-20T09:55:37;99396.34;;;7.66;100.00
12536;BME280;6334;48.696;2.114;2022-11-20T09:58:12;99396.53;;;7.64;100.00
12536;BME280;6334;48.696;2.114;2022-11-20T10:00:40;99396.02;;;7.33;100.00
12536;BME280;6334;48.696;2.114;2022-11-20T10:03:19;99399.42;;;7.34;100.00
12536;BME280;6334;48.696;2.114;2022-11-20T10:05:47;99396.78;;;7.21;100.00
12536;BME280;6334;48.696;2.114;2022-11-20T10:08:16;99394.77;;;7.46;100.00
12536;BME280;6334;48.696;2.114;2022-11-20T10:14:00;99368.11;;;7.55;100.00
12536;BME280;6334;48.696;2.114;2022-11-20T10:16:43;99369.00;;;7.56;100.00
12536;BME280;6334;48.696;2.114;2022-11-20T10:19:47;99364.64;;;7.56;100.00
12536;BME280;6334;48.696;2.114;2022-11-20T10:22:27;99365.63;;;7.71;100.00
12536;BME280;6334;48.696;2.114;2022-11-20T10:25:22;99365.76;;;8.00;100.00
12536;BME280;6334;48.696;2.114;2022-11-20T10:28:13;99362.14;;;7.90;100.00
12536;BME280;6334;48.696;2.114;2022-11-20T10:30:42;99348.35;;;7.93;100.00
12536;BME280;6334;48.696;2.114;2022-11-20T10:33:16;99345.96;;;7.96;100.00
12536;BME280;6334;48.696;2.114;2022-11-20T10:35:49;99355.53;;;8.01;100.00
12536;BME280;6334;48.696;2.114;2022-11-20T10:38:26;99363.58;;;7.73;100.00
12536;BME280;6334;48.696;2.114;2022-11-20T10:40:55;99362.53;;;7.72;100.00
12536;BME280;6334;48.696;2.114;2022-11-20T10:43:32;99358.77;;;7.65;100.00
12536;BME280;6334;48.696;2.114;2022-11-20T10:46:06;99356.23;;;7.59;100.00
12536;BME280;6334;48.696;2.114;2022-11-20T10:48:35;99351.51;;;7.67;100.00
12536;BME280;6334;48.696;2.114;2022-11-20T10:51:40;99352.02;;;7.53;100.00
12536;BME280;6334;48.696;2.114;2022-11-20T10:54:27;99336.33;;;7.41;100.00
12536;BME280;6334;48.696;2.114;2022-11-20T10:56:53;99356.56;;;7.72;100.00
12536;BME280;6334;48.696;2.114;2022-11-20T11:01:52;99349.09;;;7.72;100.00
12536;BME280;6334;48.696;2.114;2022-11-20T11:04:32;99348.91;;;7.78;100.00
12536;BME280;6334;48.696;2.114;2022-11-20T11:07:05;99343.30;;;7.75;100.00
12536;BME280;6334;48.696;2.114;2022-11-20T11:09:32;99329.76;;;7.66;100.00
12536;BME280;6334;48.696;2.114;2022-11-20T11:12:00;99329.43;;;7.84;100.00
12536;BME280;6334;48.696;2.114;2022-11-20T11:14:30;99333.58;;;7.63;100.00
12536;BME280;6334;48.696;2.114;2022-11-20T11:17:00;99326.83;;;7.59;100.00
12536;BME280;6334;48.696;2.114;2022-11-20T11:19:30;99337.89;;;7.68;100.00
12536;BME280;6334;48.696;2.114;2022-11-20T11:22:01;99333.13;;;7.54;100.00
12536;BME280;6334;48.696;2.114;2022-11-20T11:24:32;99335.17;;;7.59;100.00
12536;BME280;6334;48.696;2.114;2022-11-20T11:27:03;99330.15;;;7.42;100.00
12536;BME280;6334;48.696;2.114;2022-11-20T11:29:33;99333.00;;;7.32;100.00
12536;BME280;6334;48.696;2.114;2022-11-20T11:32:11;99332.26;;;7.37;100.00
12536;BME280;6334;48.696;2.114;2022-11-20T11:34:37;99331.39;;;7.33;100.00
12536;BME280;6334;48.696;2.114;2022-11-20T11:37:20;99326.82;;;7.45;100.00
12536;BME280;6334;48.696;2.114;2022-11-20T11:39:49;99329.11;;;7.46;100.00
12536;BME280;6334;48.696;2.114;2022-11-20T11:42:18;99321.11;;;7.40;100.00
12536;BME280;6334;48.696;2.114;2022-11-20T11:44:48;99317.27;;;7.59;100.00
12536;BME280;6334;48.696;2.114;2022-11-20T11:47:36;99313.48;;;7.54;100.00
12536;BME280;6334;48.696;2.114;2022-11-20T11:55:33;99299.12;;;7.45;100.00
12536;BME280;6334;48.696;2.114;2022-11-20T11:58:12;99299.22;;;7.36;100.00
12536;BME280;6334;48.696;2.114;2022-11-20T12:00:40;99298.47;;;7.47;100.00
12536;BME280;6334;48.696;2.114;2022-11-20T12:03:14;99291.83;;;7.50;100.00
12536;BME280;6334;48.696;2.114;2022-11-20T12:05:49;99288.41;;;7.55;100.00
12536;BME280;6334;48.696;2.114;2022-11-20T12:08:32;99278.67;;;7.50;100.00
12536;BME280;6334;48.696;2.114;2022-11-20T12:11:20;99282.81;;;7.57;100.00
12536;BME280;6334;48.696;2.114;2022-11-20T12:13:55;99273.62;;;7.65;100.00
12536;BME280;6334;48.696;2.114;2022-11-20T12:16:24;99265.27;;;7.72;100.00
12536;BME280;6334;48.696;2.114;2022-11-20T12:18:53;99267.57;;;7.77;100.00
12536;BME280;6334;48.696;2.114;2022-11-20T12:30:00;99270.10;;;7.96;100.00
12536;BME280;6334;48.696;2.114;2022-11-20T12:37:37;99268.52;;;8.20;100.00
12536;BME280;6334;48.696;2.114;2022-11-20T12:40:11;99272.66;;;8.02;100.00
12536;BME280;6334;48.696;2.114;2022-11-20T12:51:28;99288.33;;;8.03;100.00
12536;BME280;6334;48.696;2.114;2022-11-20T12:57:16;99277.23;;;8.27;100.00
12536;BME280;6334;48.696;2.114;2022-11-20T12:59:57;99285.47;;;8.20;100.00
12536;BME280;6334;48.696;2.114;2022-11-20T13:05:51;99269.39;;;8.33;100.00
12536;BME280;6334;48.696;2.114;2022-11-20T13:14:42;99243.86;;;8.58;100.00
12536;BME280;6334;48.696;2.114;2022-11-20T13:17:17;99262.84;;;8.72;100.00
12536;BME280;6334;48.696;2.114;2022-11-20T13:19:52;99270.41;;;8.67;100.00
12536;BME280;6334;48.696;2.114;2022-11-20T13:22:26;99272.11;;;8.87;100.00
12536;BME280;6334;48.696;2.114;2022-11-20T13:24:56;99289.16;;;8.83;100.00
12536;BME280;6334;48.696;2.114;2022-11-20T13:27:26;99283.45;;;8.93;100.00
12536;BME280;6334;48.696;2.114;2022-11-20T13:48:20;99298.09;;;9.36;100.00
12536;BME280;6334;48.696;2.114;2022-11-20T13:50:55;99294.34;;;9.32;100.00
12536;BME280;6334;48.696;2.114;2022-11-20T13:53:56;99197.28;;;8.90;100.00
12536;BME280;6334;48.696;2.114;2022-11-20T13:59:44;99270.27;;;9.37;100.00
12536;BME280;6334;48.696;2.114;2022-11-20T14:02:18;99288.46;;;9.45;100.00
12536;BME280;6334;48.696;2.114;2022-11-20T14:04:51;99287.46;;;9.48;100.00
12536;BME280;6334;48.696;2.114;2022-11-20T14:07:22;99288.48;;;9.57;100.00
12536;BME280;6334;48.696;2.114;2022-11-20T14:09:53;99283.09;;;9.65;100.00
12536;BME280;6334;48.696;2.114;2022-11-20T14:12:43;99256.06;;;9.46;100.00
12536;BME280;6334;48.696;2.114;2022-11-20T14:15:32;99267.94;;;9.60;100.00
12536;BME280;6334;48.696;2.114;2022-11-20T14:18:11;99270.77;;;9.54;100.00
12536;BME280;6334;48.696;2.114;2022-11-20T14:21:04;99254.09;;;9.50;100.00
12536;BME280;6334;48.696;2.114;2022-11-20T14:23:38;99258.11;;;9.50;100.00
12536;BME280;6334;48.696;2.114;2022-11-20T14:26:12;99243.83;;;9.54;100.00
12536;BME280;6334;48.696;2.114;2022-11-20T14:28:41;99252.28;;;9.58;100.00
12536;BME280;6334;48.696;2.114;2022-11-20T14:31:26;99264.06;;;9.65;100.00
12536;BME280;6334;48.696;2.114;2022-11-20T14:33:55;99272.16;;;9.62;100.00
12536;BME280;6334;48.696;2.114;2022-11-20T14:36:42;99279.89;;;9.75;100.00
12536;BME280;6334;48.696;2.114;2022-11-20T14:39:48;99272.40;;;9.71;100.00
12536;BME280;6334;48.696;2.114;2022-11-20T14:46:11;99275.55;;;9.66;100.00
12536;BME280;6334;48.696;2.114;2022-11-20T14:48:45;99280.34;;;9.61;100.00
12536;BME280;6334;48.696;2.114;2022-11-20T14:51:32;99280.84;;;9.94;100.00
12536;BME280;6334;48.696;2.114;2022-11-20T14:54:11;99286.22;;;9.82;100.00